Time;durP1;ratioP1;P1;durP2;ratioP2;P2;SDS_P1;SDS_P2;PMS_P1;PMS_P2;Temp;Humidity;BMP_temperature;BMP_pressure;BME280_temperature;BME280_humidity;BME280_pressure;Samples;Min_cycle;Max_cycle;Signal;HPM_P1;HPM_P2
2023/01/11 00:01:43;;;;;;;20.73;11.97;;;6.80;99.90;;;;;;5011196;28;20195;-73
2023/01/11 00:04:12;;;;;;;20.60;11.73;;;6.90;99.90;;;;;;5011662;28;20187;-72
2023/01/11 00:06:41;;;;;;;24.23;12.93;;;6.80;99.90;;;;;;5014509;28;20222;-72
2023/01/11 00:09:10;;;;;;;21.80;12.27;;;6.80;99.90;;;;;;5014832;28;20250;-73
2023/01/11 00:11:40;;;;;;;20.17;11.73;;;6.80;99.90;;;;;;5014831;28;20195;-73
2023/01/11 00:14:08;;;;;;;19.70;11.30;;;6.80;99.90;;;;;;5014257;28;20269;-73
2023/01/11 00:16:39;;;;;;;15.70;10.57;;;6.80;99.90;;;;;;5014572;28;20198;-73
2023/01/11 00:19:08;;;;;;;17.57;10.57;;;6.80;99.90;;;;;;5014628;28;20214;-73
2023/01/11 00:21:36;;;;;;;17.77;10.23;;;6.80;99.90;;;;;;5014822;28;20237;-72
2023/01/11 00:24:06;;;;;;;19.77;10.80;;;6.70;99.90;;;;;;5014641;28;20184;-71
2023/01/11 00:26:35;;;;;;;19.00;11.63;;;6.70;99.90;;;;;;5013872;28;20245;-72
2023/01/11 00:29:04;;;;;;;17.67;10.70;;;6.60;99.90;;;;;;5014074;28;20664;-72
2023/01/11 00:31:32;;;;;;;19.93;10.60;;;6.60;99.90;;;;;;5014431;28;20203;-72
2023/01/11 00:34:03;;;;;;;21.03;10.97;;;6.60;99.90;;;;;;5014358;28;20198;-71
2023/01/11 00:36:31;;;;;;;14.37;9.97;;;6.60;99.90;;;;;;5014051;28;20205;-70
2023/01/11 00:39:01;;;;;;;15.80;9.23;;;6.60;99.90;;;;;;5014250;28;20283;-71
2023/01/11 00:49:49;;;;;;;19.77;10.10;;;6.50;99.90;;;;;;5013871;28;20600;-71
2023/01/11 00:52:18;;;;;;;16.70;10.07;;;6.50;99.90;;;;;;5014151;28;20187;-74
2023/01/11 00:54:47;;;;;;;15.13;9.90;;;6.40;99.90;;;;;;5013805;28;20524;-73
2023/01/11 00:57:16;;;;;;;22.40;10.77;;;6.50;99.90;;;;;;5013001;28;20654;-72
2023/01/11 00:59:45;;;;;;;18.90;11.97;;;6.40;99.90;;;;;;5013856;28;20198;-72
2023/01/11 01:02:14;;;;;;;17.87;10.67;;;6.40;99.90;;;;;;5013957;28;20614;-72
2023/01/11 01:04:43;;;;;;;15.47;10.50;;;6.40;99.90;;;;;;5013591;28;20199;-72
2023/01/11 01:07:13;;;;;;;17.70;10.57;;;6.40;99.90;;;;;;5013621;28;20668;-72
2023/01/11 01:09:42;;;;;;;21.67;11.30;;;6.50;99.90;;;;;;5013868;28;20197;-72
2023/01/11 01:14:24;;;;;;;19.43;10.93;;;6.50;99.90;;;;;;5013217;28;20213;-72
2023/01/11 01:14:58;;;;;;;17.57;9.80;;;6.50;99.90;;;;;;5013736;28;20198;-72
2023/01/11 01:17:27;;;;;;;16.23;10.93;;;6.40;99.90;;;;;;5012551;28;20195;-71
2023/01/11 01:19:56;;;;;;;17.70;10.73;;;6.40;99.90;;;;;;5013495;28;20637;-71
2023/01/11 01:22:26;;;;;;;20.07;11.03;;;6.30;99.90;;;;;;5013544;28;20201;-71
2023/01/11 01:24:55;;;;;;;17.00;10.87;;;6.30;99.90;;;;;;5013117;28;20210;-72
2023/01/11 01:27:24;;;;;;;16.53;11.07;;;6.30;99.90;;;;;;5012794;28;20286;-71
2023/01/11 01:29:52;;;;;;;20.93;11.43;;;6.30;99.90;;;;;;5013433;28;20286;-72
2023/01/11 01:32:22;;;;;;;17.80;11.83;;;6.30;99.90;;;;;;5013502;28;20282;-72
2023/01/11 01:34:51;;;;;;;19.13;11.60;;;6.30;99.90;;;;;;5012449;28;20207;-71
2023/01/11 01:37:19;;;;;;;24.07;11.67;;;6.30;99.90;;;;;;5011503;28;20199;-71
2023/01/11 01:39:50;;;;;;;19.50;11.40;;;6.30;99.90;;;;;;5012455;28;20202;-71
2023/01/11 01:42:22;;;;;;;19.07;11.97;;;6.30;99.90;;;;;;5013064;28;20221;-71
2023/01/11 01:45:18;;;;;;;18.57;11.00;;;6.20;99.90;;;;;;5013166;28;20199;-71
2023/01/11 01:47:53;;;;;;;23.27;10.87;;;6.20;99.90;;;;;;5012960;28;20256;-71
2023/01/11 01:50:25;;;;;;;23.20;12.63;;;6.20;99.90;;;;;;5013114;28;20191;-70
2023/01/11 01:53:01;;;;;;;20.70;11.27;;;6.20;99.90;;;;;;5013159;28;20194;-72
2023/01/11 01:55:35;;;;;;;19.87;12.30;;;6.20;99.90;;;;;;5012888;28;20682;-72
2023/01/11 01:58:10;;;;;;;14.63;10.40;;;6.20;99.90;;;;;;5012721;28;20231;-73
2023/01/11 02:00:40;;;;;;;18.10;11.10;;;6.10;99.90;;;;;;5012857;28;20267;-71
2023/01/11 02:03:12;;;;;;;18.13;10.67;;;6.10;99.90;;;;;;5012933;28;20241;-71
2023/01/11 02:05:40;;;;;;;18.10;11.63;;;6.00;99.90;;;;;;5012736;28;20756;-71
2023/01/11 02:08:17;;;;;;;14.63;9.57;;;6.00;99.90;;;;;;5012608;28;20203;-71
2023/01/11 02:10:47;;;;;;;17.47;11.00;;;6.00;99.90;;;;;;5011955;28;20734;-71
2023/01/11 02:13:16;;;;;;;15.93;10.27;;;6.00;99.90;;;;;;5012578;28;20216;-72
2023/01/11 02:15:45;;;;;;;22.00;11.30;;;6.00;99.90;;;;;;5012668;28;20198;-72
2023/01/11 02:18:14;;;;;;;16.87;9.60;;;6.00;99.90;;;;;;5012505;28;20202;-72
2023/01/11 02:21:00;;;;;;;16.17;10.73;;;6.00;99.90;;;;;;5012265;28;20214;-72
2023/01/11 02:24:08;;;;;;;13.33;9.73;;;6.00;99.90;;;;;;5012330;28;20198;-72
2023/01/11 02:27:16;;;;;;;17.87;9.80;;;6.00;99.90;;;;;;4970814;28;20227;-73
2023/01/11 02:29:56;;;;;;;16.57;10.13;;;5.90;99.90;;;;;;4970669;28;20205;-71
2023/01/11 02:32:32;;;;;;;17.80;10.33;;;5.90;99.90;;;;;;4970970;28;20215;-72
2023/01/11 02:35:12;;;;;;;16.83;10.17;;;5.80;99.90;;;;;;4970897;28;20210;-71
2023/01/11 02:37:51;;;;;;;18.93;10.90;;;5.90;99.90;;;;;;4970728;28;20212;-73
2023/01/11 02:40:27;;;;;;;18.33;9.80;;;5.80;99.90;;;;;;4970296;28;20658;-72
2023/01/11 02:45:59;;;;;;;13.30;8.77;;;5.80;99.90;;;;;;4970861;28;20198;-73
2023/01/11 02:48:37;;;;;;;15.87;9.70;;;5.80;99.90;;;;;;4970558;28;20290;-71
2023/01/11 02:51:11;;;;;;;15.83;9.37;;;5.70;99.90;;;;;;4970470;28;20224;-71
2023/01/11 02:53:46;;;;;;;12.83;9.53;;;5.70;99.90;;;;;;4970083;28;20294;-71
2023/01/11 02:56:20;;;;;;;17.43;8.70;;;5.60;99.90;;;;;;4970594;28;20203;-72
2023/01/11 02:58:51;;;;;;;15.73;9.10;;;5.70;99.90;;;;;;4971643;28;20203;-72
2023/01/11 03:01:22;;;;;;;16.20;9.33;;;5.60;99.90;;;;;;4971516;28;20247;-71
2023/01/11 03:03:52;;;;;;;17.27;9.27;;;5.60;99.90;;;;;;4994047;28;20210;-71
2023/01/11 03:06:25;;;;;;;17.53;9.00;;;5.60;99.90;;;;;;5012568;28;20289;-71
2023/01/11 03:09:14;;;;;;;15.90;8.87;;;5.60;99.90;;;;;;5012241;28;20197;-72
2023/01/11 03:14:58;;;;;;;15.43;8.07;;;5.50;99.90;;;;;;5012494;28;20198;-71
2023/01/11 03:17:42;;;;;;;14.07;8.77;;;5.50;99.90;;;;;;5012507;28;20209;-71
2023/01/11 03:20:21;;;;;;;16.40;9.23;;;5.50;99.90;;;;;;5012205;28;20197;-71
2023/01/11 03:23:12;;;;;;;15.47;9.57;;;5.50;99.90;;;;;;5012257;28;20279;-72
2023/01/11 03:25:49;;;;;;;16.27;9.60;;;5.50;99.90;;;;;;5012330;28;20215;-72
2023/01/11 03:28:26;;;;;;;14.10;9.27;;;5.50;99.90;;;;;;5012218;28;20617;-72
2023/01/11 03:31:03;;;;;;;19.67;10.90;;;5.50;99.90;;;;;;5012206;28;20773;-71
2023/01/11 03:33:39;;;;;;;15.50;9.73;;;5.50;99.90;;;;;;5012498;28;20257;-72
2023/01/11 03:36:17;;;;;;;15.73;9.53;;;5.40;99.90;;;;;;5012221;28;20196;-72
2023/01/11 03:38:51;;;;;;;19.57;9.20;;;5.50;99.90;;;;;;5011777;28;20245;-72
2023/01/11 03:41:24;;;;;;;15.43;8.87;;;5.40;99.90;;;;;;5016267;28;20309;-73
2023/01/11 03:43:57;;;;;;;16.60;9.73;;;5.40;99.90;;;;;;5016292;28;20566;-72
2023/01/11 03:46:29;;;;;;;15.10;9.53;;;5.40;99.90;;;;;;5016310;28;20200;-72
2023/01/11 03:49:04;;;;;;;14.50;9.67;;;5.40;99.90;;;;;;5016074;28;20209;-72
2023/01/11 03:51:38;;;;;;;16.70;9.57;;;5.40;99.90;;;;;;5016078;28;20199;-72
2023/01/11 03:54:10;;;;;;;14.87;8.90;;;5.40;99.90;;;;;;5016188;28;20194;-73
2023/01/11 03:56:46;;;;;;;16.70;9.17;;;5.40;99.90;;;;;;5030407;28;20224;-73
2023/01/11 03:59:15;;;;;;;13.87;9.23;;;5.40;99.90;;;;;;4996237;28;20203;-72
2023/01/11 04:01:44;;;;;;;16.37;9.67;;;5.40;99.90;;;;;;4996360;28;20271;-72
2023/01/11 04:04:14;;;;;;;14.20;9.40;;;5.40;99.90;;;;;;5011490;28;20241;-72
2023/01/11 04:06:43;;;;;;;17.53;9.27;;;5.40;99.90;;;;;;4996114;28;20209;-72
2023/01/11 04:09:12;;;;;;;16.77;9.77;;;5.40;99.90;;;;;;5001533;28;20224;-72
2023/01/11 04:11:41;;;;;;;17.43;10.03;;;5.30;99.90;;;;;;5015918;28;20197;-73
2023/01/11 04:14:09;;;;;;;16.23;10.13;;;5.40;99.90;;;;;;5015898;28;20203;-72
2023/01/11 04:16:38;;;;;;;17.43;9.83;;;5.40;99.90;;;;;;5015780;28;20221;-73
2023/01/11 04:19:07;;;;;;;14.07;8.60;;;5.30;99.90;;;;;;5015572;28;20197;-72
2023/01/11 04:21:37;;;;;;;21.23;10.00;;;5.30;99.90;;;;;;5015464;28;20244;-72
2023/01/11 04:24:06;;;;;;;13.60;8.43;;;5.30;99.90;;;;;;5015696;28;20208;-73
2023/01/11 04:26:35;;;;;;;15.00;9.07;;;5.30;99.90;;;;;;5015249;28;20204;-72
2023/01/11 04:29:03;;;;;;;14.77;9.53;;;5.30;99.90;;;;;;5015702;28;20206;-73
2023/01/11 04:31:32;;;;;;;20.93;10.13;;;5.20;99.90;;;;;;5014099;28;20219;-73
2023/01/11 04:34:01;;;;;;;13.67;9.03;;;5.20;99.90;;;;;;5013844;28;20202;-72
2023/01/11 04:36:30;;;;;;;13.83;8.47;;;5.30;99.90;;;;;;5015860;28;20287;-72
2023/01/11 04:39:00;;;;;;;15.50;8.57;;;5.20;99.90;;;;;;5015264;28;20193;-72
2023/01/11 04:44:18;;;;;;;14.43;8.60;;;5.30;99.90;;;;;;4973939;28;20211;-72
2023/01/11 04:46:47;;;;;;;14.43;8.57;;;5.30;99.90;;;;;;4973981;28;20248;-72
2023/01/11 04:49:16;;;;;;;11.67;7.97;;;5.30;99.90;;;;;;4973870;28;20210;-72
2023/01/11 04:51:45;;;;;;;13.57;9.07;;;5.30;99.90;;;;;;4973540;28;20206;-72
2023/01/11 04:54:16;;;;;;;12.93;7.80;;;5.40;99.90;;;;;;4973906;28;20206;-72
2023/01/11 04:56:44;;;;;;;12.37;8.27;;;5.40;99.90;;;;;;4973509;28;20245;-72
2023/01/11 04:59:14;;;;;;;14.73;7.37;;;5.40;99.90;;;;;;4973711;28;20222;-72
2023/01/11 05:01:44;;;;;;;12.73;7.73;;;5.40;99.90;;;;;;4973357;28;20309;-72
2023/01/11 05:04:14;;;;;;;12.83;7.27;;;5.30;99.90;;;;;;4973538;28;20742;-72
2023/01/11 05:06:43;;;;;;;12.03;7.07;;;5.40;99.90;;;;;;4972923;28;20715;-72
2023/01/11 05:09:15;;;;;;;11.03;7.17;;;5.40;99.90;;;;;;4973485;28;20226;-72
2023/01/11 05:11:45;;;;;;;14.23;7.33;;;5.40;99.90;;;;;;4973186;28;20198;-71
2023/01/11 05:14:14;;;;;;;13.73;7.33;;;5.40;99.90;;;;;;4973408;28;20211;-72
2023/01/11 05:16:44;;;;;;;8.60;7.17;;;5.40;99.90;;;;;;4973228;28;20241;-71
2023/01/11 05:19:13;;;;;;;13.70;7.47;;;5.40;99.90;;;;;;4973350;28;20269;-71
2023/01/11 05:21:42;;;;;;;15.93;7.90;;;5.50;99.90;;;;;;4998433;28;20289;-72
2023/01/11 05:24:16;;;;;;;10.37;6.30;;;5.50;99.90;;;;;;5014481;28;20662;-72
2023/01/11 05:26:47;;;;;;;13.27;7.43;;;5.50;99.90;;;;;;5007834;28;20634;-72
2023/01/11 05:29:19;;;;;;;14.67;7.60;;;5.50;99.90;;;;;;4994831;28;20653;-72
2023/01/11 05:31:48;;;;;;;13.13;6.80;;;5.50;99.90;;;;;;4994568;28;20261;-72
2023/01/11 05:34:18;;;;;;;17.13;7.60;;;5.50;99.90;;;;;;4994595;28;20825;-70
2023/01/11 05:36:47;;;;;;;19.23;7.77;;;5.50;99.90;;;;;;4998891;28;20219;-72
2023/01/11 05:39:17;;;;;;;10.70;6.87;;;5.50;99.90;;;;;;5014210;28;20252;-71
2023/01/11 05:41:46;;;;;;;11.07;7.40;;;5.50;99.90;;;;;;5013964;28;20537;-74
2023/01/11 05:47:01;;;;;;;10.47;6.80;;;5.60;99.90;;;;;;5014012;28;20226;-71
2023/01/11 05:49:30;;;;;;;13.07;7.30;;;5.50;99.90;;;;;;5013978;28;20193;-72
2023/01/11 05:51:59;;;;;;;15.57;8.40;;;5.50;99.90;;;;;;5013642;28;20309;-72
2023/01/11 05:54:30;;;;;;;12.60;8.17;;;5.60;99.90;;;;;;5007191;28;20216;-72
2023/01/11 05:56:59;;;;;;;14.67;7.80;;;5.60;99.90;;;;;;4997366;28;20315;-72
2023/01/11 05:59:28;;;;;;;17.00;9.00;;;5.60;99.90;;;;;;5013965;28;20241;-71
2023/01/11 06:01:59;;;;;;;13.93;7.97;;;5.70;99.90;;;;;;5013071;28;20620;-72
2023/01/11 06:04:29;;;;;;;15.33;7.10;;;5.70;99.90;;;;;;5013623;28;20718;-71
2023/01/11 06:06:58;;;;;;;11.73;7.30;;;5.60;99.90;;;;;;5012054;28;20197;-72
2023/01/11 06:09:27;;;;;;;9.87;7.07;;;5.70;99.90;;;;;;5013567;28;20205;-72
2023/01/11 06:11:57;;;;;;;11.43;7.57;;;5.60;99.90;;;;;;5013438;28;20189;-72
2023/01/11 06:14:26;;;;;;;12.57;7.83;;;5.70;99.90;;;;;;5013424;28;20556;-72
2023/01/11 06:16:55;;;;;;;14.73;7.40;;;5.70;99.90;;;;;;5013476;28;20206;-72
2023/01/11 06:19:24;;;;;;;11.37;8.00;;;5.70;99.90;;;;;;5013431;28;20220;-72
2023/01/11 06:21:53;;;;;;;15.30;7.90;;;5.70;99.90;;;;;;5013196;28;20195;-73
2023/01/11 06:24:22;;;;;;;11.37;6.97;;;5.80;99.90;;;;;;5012111;28;20244;-73
2023/01/11 06:26:53;;;;;;;12.13;6.93;;;5.80;99.90;;;;;;5012765;28;20205;-74
2023/01/11 06:29:23;;;;;;;11.37;7.33;;;5.90;99.90;;;;;;5012091;28;20213;-73
2023/01/11 06:31:52;;;;;;;10.00;6.50;;;5.90;99.90;;;;;;5013051;28;20199;-72
2023/01/11 06:34:21;;;;;;;11.83;7.20;;;5.90;99.90;;;;;;5013032;28;20209;-72
2023/01/11 06:36:49;;;;;;;12.17;7.27;;;5.80;99.90;;;;;;5013062;28;20194;-73
2023/01/11 06:39:21;;;;;;;12.00;7.27;;;5.90;99.90;;;;;;5013142;28;20330;-72
2023/01/11 06:41:50;;;;;;;8.40;6.70;;;5.80;99.90;;;;;;5012734;28;20204;-73
2023/01/11 06:44:19;;;;;;;14.20;6.73;;;5.80;99.90;;;;;;5012867;28;20243;-73
2023/01/11 06:46:50;;;;;;;9.97;6.03;;;5.90;99.90;;;;;;5012902;28;20202;-73
2023/01/11 06:49:19;;;;;;;11.30;6.77;;;5.90;99.90;;;;;;5012756;28;20668;-74
2023/01/11 06:51:48;;;;;;;7.97;6.00;;;6.00;99.90;;;;;;5011211;28;20611;-73
2023/01/11 06:54:20;;;;;;;11.30;6.60;;;6.00;99.90;;;;;;5012698;28;20664;-76
2023/01/11 06:56:49;;;;;;;9.53;6.37;;;5.90;99.90;;;;;;5011988;28;20233;-75
2023/01/11 06:59:18;;;;;;;10.03;6.13;;;5.90;99.90;;;;;;5010145;28;20200;-74
2023/01/11 07:01:47;;;;;;;10.43;5.50;;;5.90;99.90;;;;;;5009839;28;20280;-75
2023/01/11 07:04:18;;;;;;;8.07;5.47;;;5.90;99.90;;;;;;4992997;28;20724;-74
2023/01/11 07:06:47;;;;;;;10.33;6.27;;;5.90;99.90;;;;;;4992957;28;20213;-73
2023/01/11 07:09:16;;;;;;;11.17;6.53;;;5.90;99.90;;;;;;5002631;28;20198;-72
2023/01/11 07:11:44;;;;;;;10.97;7.10;;;6.00;99.90;;;;;;5012785;28;20563;-72
2023/01/11 07:14:18;;;;;;;12.27;6.87;;;6.00;99.90;;;;;;5011804;28;20233;-72
2023/01/11 07:16:47;;;;;;;10.93;6.97;;;6.00;99.90;;;;;;5012389;28;20200;-72
2023/01/11 07:19:20;;;;;;;12.13;6.83;;;6.10;99.90;;;;;;5012383;28;20183;-73
2023/01/11 07:21:49;;;;;;;10.10;5.90;;;6.10;99.90;;;;;;5012331;28;20732;-72
2023/01/11 07:24:19;;;;;;;12.43;6.67;;;6.20;99.90;;;;;;5012351;28;20255;-72
2023/01/11 07:26:47;;;;;;;11.13;6.43;;;6.10;99.90;;;;;;5012122;28;20208;-73
2023/01/11 07:29:16;;;;;;;11.57;6.57;;;6.20;99.90;;;;;;5012482;28;20398;-72
2023/01/11 07:31:46;;;;;;;10.57;5.80;;;6.20;99.90;;;;;;5012303;28;20230;-72
2023/01/11 07:34:15;;;;;;;9.57;5.90;;;6.20;99.90;;;;;;5012394;28;20558;-72
2023/01/11 07:36:45;;;;;;;9.20;5.73;;;6.10;99.90;;;;;;5012185;28;20205;-73
2023/01/11 07:39:14;;;;;;;9.93;6.60;;;6.20;99.90;;;;;;5012243;28;20272;-73
2023/01/11 07:44:29;;;;;;;15.50;5.57;;;6.10;99.90;;;;;;5027368;28;20250;-73
2023/01/11 07:46:58;;;;;;;9.83;5.90;;;6.10;99.90;;;;;;5012090;28;20211;-74
2023/01/11 07:49:27;;;;;;;7.50;6.27;;;6.20;99.90;;;;;;5012181;28;20192;-71
2023/01/11 07:51:57;;;;;;;10.53;5.87;;;6.00;99.90;;;;;;5010778;28;20214;-71
2023/01/11 07:54:26;;;;;;;10.27;5.77;;;5.90;99.90;;;;;;5005428;28;20665;-71
2023/01/11 07:56:55;;;;;;;8.33;5.53;;;5.90;99.90;;;;;;4993396;28;20337;-71
2023/01/11 07:59:24;;;;;;;8.00;5.63;;;5.90;99.90;;;;;;4992441;28;20222;-71
2023/01/11 08:01:53;;;;;;;7.47;6.03;;;5.90;99.70;;;;;;4992372;28;20194;-71
2023/01/11 08:04:22;;;;;;;20.70;11.30;;;5.90;99.90;;;;;;4992350;28;20230;-71
2023/01/11 08:06:50;;;;;;;16.10;7.40;;;5.90;99.90;;;;;;4992528;28;20195;-72
2023/01/11 08:09:20;;;;;;;8.40;6.07;;;5.90;99.90;;;;;;4992470;28;20286;-72
2023/01/11 08:14:41;;;;;;;11.20;6.00;;;5.90;99.60;;;;;;4992364;28;20199;-71
2023/01/11 08:17:12;;;;;;;10.83;6.37;;;5.90;99.90;;;;;;4992373;28;20192;-71
2023/01/11 08:19:41;;;;;;;6.83;6.13;;;5.90;99.50;;;;;;4992288;28;20202;-72
2023/01/11 08:22:11;;;;;;;11.90;6.20;;;5.90;99.90;;;;;;4992313;28;20289;-73
2023/01/11 08:24:41;;;;;;;7.73;6.03;;;5.90;99.90;;;;;;4992113;28;20286;-71
2023/01/11 08:27:10;;;;;;;8.70;6.20;;;5.90;99.90;;;;;;4995809;28;20207;-72
2023/01/11 08:29:42;;;;;;;8.50;6.23;;;5.90;99.80;;;;;;4995925;28;20199;-72
2023/01/11 08:32:11;;;;;;;9.33;6.30;;;5.90;99.90;;;;;;4995976;28;20226;-72
2023/01/11 08:34:40;;;;;;;10.50;6.47;;;5.90;99.20;;;;;;4995830;28;20198;-71
2023/01/11 08:37:09;;;;;;;9.37;5.57;;;5.80;99.90;;;;;;4995735;28;20207;-72
2023/01/11 08:39:39;;;;;;;13.10;7.67;;;5.90;99.90;;;;;;4995810;28;20207;-72
2023/01/11 08:42:09;;;;;;;8.27;5.87;;;5.90;99.90;;;;;;4995706;28;20285;-73
2023/01/11 08:44:38;;;;;;;14.80;6.27;;;5.90;99.60;;;;;;4995742;28;20248;-73
2023/01/11 08:47:06;;;;;;;14.07;8.30;;;5.90;99.90;;;;;;4995683;28;20253;-71
2023/01/11 08:49:35;;;;;;;10.90;6.30;;;6.00;99.60;;;;;;4995491;28;20222;-70
2023/01/11 08:52:04;;;;;;;8.77;6.10;;;6.10;99.90;;;;;;4995209;28;20201;-71
2023/01/11 08:54:33;;;;;;;13.47;6.47;;;6.20;99.90;;;;;;4995487;28;20234;-72
2023/01/11 08:57:01;;;;;;;10.17;5.57;;;6.20;97.80;;;;;;4995246;28;20230;-72
2023/01/11 08:59:31;;;;;;;12.77;5.73;;;6.10;97.60;;;;;;4995459;28;20202;-71
2023/01/11 09:02:01;;;;;;;9.20;5.63;;;6.10;97.60;;;;;;4995365;28;20693;-71
2023/01/11 09:04:29;;;;;;;9.53;5.13;;;6.10;96.70;;;;;;4995282;28;20265;-71
2023/01/11 09:06:58;;;;;;;8.03;6.00;;;6.10;97.30;;;;;;5003667;28;20701;-71
2023/01/11 09:09:27;;;;;;;7.77;5.33;;;6.10;95.90;;;;;;4996816;28;20224;-71
2023/01/11 09:11:57;;;;;;;10.77;5.30;;;6.20;95.40;;;;;;4995122;28;20230;-72
2023/01/11 09:14:27;;;;;;;9.13;5.40;;;6.20;95.70;;;;;;4995130;28;20694;-71
2023/01/11 09:16:58;;;;;;;6.90;5.00;;;6.30;95.10;;;;;;4995224;28;20204;-72
2023/01/11 09:19:26;;;;;;;7.13;5.17;;;6.30;94.20;;;;;;4994980;28;20196;-71
2023/01/11 09:22:00;;;;;;;7.33;6.10;;;6.30;97.20;;;;;;4994957;28;20196;-72
2023/01/11 09:24:29;;;;;;;9.87;5.60;;;6.30;93.20;;;;;;4994849;28;20222;-73
2023/01/11 09:26:59;;;;;;;8.03;5.10;;;6.30;93.20;;;;;;4994876;28;20573;-73
2023/01/11 09:29:28;;;;;;;6.30;4.60;;;6.40;93.80;;;;;;5014151;28;20365;-74
2023/01/11 09:31:58;;;;;;;7.57;5.07;;;6.40;91.80;;;;;;5014309;28;20260;-73
2023/01/11 09:34:27;;;;;;;7.60;5.93;;;6.40;95.10;;;;;;5012543;28;20203;-72
2023/01/11 09:36:58;;;;;;;7.67;4.97;;;6.40;93.00;;;;;;5004490;28;20213;-72
2023/01/11 09:39:27;;;;;;;9.23;5.30;;;6.40;91.90;;;;;;4994691;28;20211;-72
2023/01/11 09:42:30;;;;;;;7.70;4.10;;;6.30;92.00;;;;;;4994442;28;20228;-73
2023/01/11 09:45:05;;;;;;;7.57;5.63;;;6.30;91.30;;;;;;4934343;29;20240;-72
2023/01/11 09:47:40;;;;;;;10.70;4.87;;;6.30;92.10;;;;;;4934285;29;20707;-72
2023/01/11 09:50:17;;;;;;;8.53;5.90;;;6.30;91.80;;;;;;4934347;29;20213;-72
2023/01/11 09:52:51;;;;;;;6.17;4.80;;;6.30;92.30;;;;;;4934143;29;20201;-72
2023/01/11 09:55:31;;;;;;;9.60;4.80;;;6.40;92.40;;;;;;4934182;29;20213;-71
2023/01/11 09:58:27;;;;;;;8.77;4.93;;;6.40;91.80;;;;;;4934031;29;20252;-70
2023/01/11 10:01:02;;;;;;;6.63;5.00;;;6.40;91.00;;;;;;4934267;29;20288;-71
2023/01/11 10:04:05;;;;;;;6.30;4.87;;;6.40;91.00;;;;;;4933968;29;20209;-70
2023/01/11 10:06:50;;;;;;;4.87;4.37;;;6.40;91.30;;;;;;4882483;29;20270;-70
2023/01/11 10:09:32;;;;;;;7.80;5.10;;;6.50;90.90;;;;;;4907070;29;20218;-71
2023/01/11 10:12:31;;;;;;;10.50;4.70;;;6.50;91.80;;;;;;4914996;29;20194;-71
2023/01/11 10:15:27;;;;;;;9.70;4.73;;;6.60;91.20;;;;;;4914822;29;20302;-71
2023/01/11 10:18:47;;;;;;;6.73;5.07;;;6.50;91.00;;;;;;4898930;29;20788;-72
2023/01/11 10:21:44;;;;;;;8.57;4.63;;;6.50;90.90;;;;;;4934112;28;20283;-71
2023/01/11 10:24:21;;;;;;;10.40;5.80;;;6.50;91.40;;;;;;4972156;28;20260;-71
2023/01/11 10:26:53;;;;;;;7.53;5.20;;;6.40;92.40;;;;;;4972011;28;20204;-72
2023/01/11 10:32:33;;;;;;;8.73;5.70;;;6.50;92.30;;;;;;4914713;29;20219;-71
2023/01/11 10:35:30;;;;;;;7.23;4.60;;;6.60;91.10;;;;;;4914504;29;20205;-71
2023/01/11 10:41:10;;;;;;;8.33;5.50;;;6.50;92.90;;;;;;4913709;29;20273;-71
2023/01/11 10:43:44;;;;;;;10.63;4.93;;;6.60;92.80;;;;;;4945957;28;20719;-71
2023/01/11 10:46:16;;;;;;;6.53;4.27;;;6.70;91.40;;;;;;4971967;28;20336;-72
2023/01/11 10:48:46;;;;;;;9.27;5.07;;;6.70;91.70;;;;;;4971761;28;20217;-72
2023/01/11 10:51:26;;;;;;;10.17;5.50;;;6.70;92.60;;;;;;4971917;28;20239;-72
2023/01/11 10:54:14;;;;;;;8.63;5.23;;;6.70;91.00;;;;;;4971696;28;20255;-73
2023/01/11 10:56:57;;;;;;;7.43;5.20;;;6.80;91.80;;;;;;4971649;28;20232;-72
2023/01/11 11:00:18;;;;;;;8.60;5.07;;;6.70;90.60;;;;;;4971801;28;20211;-72
2023/01/11 11:02:59;;;;;;;8.77;4.90;;;6.70;90.20;;;;;;4933160;29;20201;-73
2023/01/11 11:05:36;;;;;;;10.47;4.57;;;6.80;91.00;;;;;;4933147;28;20229;-73
2023/01/11 11:08:12;;;;;;;6.13;4.67;;;6.90;90.60;;;;;;4931536;29;20201;-73
2023/01/11 11:10:51;;;;;;;6.93;5.13;;;7.00;90.10;;;;;;4971740;28;20688;-71
2023/01/11 11:13:29;;;;;;;11.50;5.17;;;7.10;90.00;;;;;;4969543;28;20200;-73
2023/01/11 11:16:04;;;;;;;9.03;5.33;;;7.00;85.50;;;;;;4970384;28;20729;-72
2023/01/11 11:18:33;;;;;;;6.80;5.50;;;6.90;90.00;;;;;;4971187;28;20243;-73
2023/01/11 11:21:06;;;;;;;6.07;4.77;;;7.00;88.90;;;;;;4971504;28;20695;-74
2023/01/11 11:23:37;;;;;;;9.53;5.87;;;6.90;88.30;;;;;;4971232;28;20221;-73
2023/01/11 11:26:07;;;;;;;8.27;5.60;;;6.90;89.20;;;;;;4970993;28;20696;-72
2023/01/11 11:28:36;;;;;;;8.40;5.00;;;6.90;91.70;;;;;;4970596;28;20204;-72
2023/01/11 11:31:10;;;;;;;7.63;4.93;;;6.90;90.20;;;;;;4971538;28;20259;-73
2023/01/11 11:33:40;;;;;;;8.73;5.10;;;6.90;87.50;;;;;;4971274;28;20197;-72
2023/01/11 11:36:11;;;;;;;6.77;5.30;;;7.00;87.60;;;;;;4971195;28;20208;-73
2023/01/11 11:38:42;;;;;;;11.80;5.17;;;7.00;89.00;;;;;;4996832;28;20211;-73
2023/01/11 11:41:14;;;;;;;8.50;4.73;;;7.00;87.10;;;;;;5011785;28;20609;-72
2023/01/11 11:43:43;;;;;;;7.77;5.73;;;7.00;88.30;;;;;;5012540;28;20203;-72
2023/01/11 11:46:26;;;;;;;10.37;5.17;;;6.90;91.70;;;;;;5012449;28;20219;-72
2023/01/11 11:49:10;;;;;;;7.43;5.20;;;7.00;89.00;;;;;;5012101;28;20195;-73
2023/01/11 11:51:41;;;;;;;7.17;5.27;;;7.00;91.00;;;;;;5009520;28;20261;-73
2023/01/11 11:54:21;;;;;;;8.90;5.00;;;6.90;89.00;;;;;;4994915;28;20200;-73
2023/01/11 11:56:51;;;;;;;10.43;5.23;;;6.80;91.60;;;;;;5011993;28;20701;-74
2023/01/11 11:59:23;;;;;;;10.23;5.03;;;6.80;92.50;;;;;;5000914;28;20203;-73
2023/01/11 12:01:59;;;;;;;8.30;5.07;;;6.90;91.70;;;;;;4996202;28;20203;-74
2023/01/11 12:04:40;;;;;;;9.83;5.50;;;6.90;91.70;;;;;;5002761;28;20245;-75
2023/01/11 12:07:14;;;;;;;8.03;5.30;;;6.80;91.40;;;;;;5015593;28;20234;-73
2023/01/11 12:09:47;;;;;;;10.17;5.63;;;6.80;92.70;;;;;;5015868;28;20550;-72
2023/01/11 12:12:22;;;;;;;7.87;5.67;;;6.90;92.30;;;;;;5015938;28;20210;-72
2023/01/11 12:15:20;;;;;;;8.77;5.00;;;6.90;92.50;;;;;;5016094;28;20199;-72
2023/01/11 12:17:49;;;;;;;6.80;5.33;;;6.90;93.90;;;;;;5015855;28;20298;-73
2023/01/11 12:20:33;;;;;;;8.80;5.53;;;6.90;93.80;;;;;;5015662;28;20665;-74
2023/01/11 12:23:20;;;;;;;9.43;5.27;;;6.80;94.50;;;;;;4996320;28;20270;-73
2023/01/11 12:26:14;;;;;;;9.60;5.13;;;6.90;92.70;;;;;;4995940;28;20211;-73
2023/01/11 12:29:17;;;;;;;11.43;5.60;;;6.90;94.20;;;;;;5014447;28;20214;-73
2023/01/11 12:31:57;;;;;;;8.93;5.17;;;6.90;93.80;;;;;;5015740;28;20221;-73
2023/01/11 12:34:43;;;;;;;10.83;5.87;;;6.90;95.00;;;;;;5015650;28;20684;-73
2023/01/11 12:37:24;;;;;;;10.93;5.67;;;7.00;95.50;;;;;;5015822;28;20203;-73
2023/01/11 12:40:01;;;;;;;7.77;5.00;;;7.10;97.50;;;;;;5014479;28;20199;-73
2023/01/11 12:43:02;;;;;;;8.03;5.03;;;7.10;95.40;;;;;;5015775;28;20248;-73
2023/01/11 12:45:40;;;;;;;7.43;5.13;;;6.90;94.10;;;;;;5015438;28;20294;-73
2023/01/11 12:48:28;;;;;;;8.10;5.87;;;6.90;94.00;;;;;;5015239;28;20206;-73
2023/01/11 12:51:11;;;;;;;10.50;5.20;;;6.80;96.50;;;;;;5015080;28;20198;-73
2023/01/11 12:53:56;;;;;;;10.53;5.43;;;6.90;95.70;;;;;;5014817;28;20203;-73
2023/01/11 12:56:38;;;;;;;10.47;5.70;;;6.90;98.10;;;;;;5015002;28;20210;-73
2023/01/11 12:59:18;;;;;;;7.10;5.33;;;6.80;95.90;;;;;;5013683;28;20547;-73
2023/01/11 13:01:56;;;;;;;8.47;6.23;;;6.90;96.00;;;;;;5014669;28;20215;-74
2023/01/11 13:04:51;;;;;;;9.10;5.40;;;6.80;95.90;;;;;;5015078;28;20285;-72
2023/01/11 13:07:33;;;;;;;9.73;5.67;;;6.70;97.90;;;;;;4997401;28;20231;-72
2023/01/11 13:10:16;;;;;;;8.30;5.47;;;6.60;97.50;;;;;;5014301;28;20207;-73
2023/01/11 13:12:52;;;;;;;8.07;5.83;;;6.50;99.90;;;;;;5013385;28;20199;-72
2023/01/11 13:15:29;;;;;;;10.90;6.60;;;6.50;98.60;;;;;;5014918;28;20209;-73
2023/01/11 13:18:17;;;;;;;13.20;6.30;;;6.50;99.30;;;;;;5014716;28;20739;-72
2023/01/11 13:20:51;;;;;;;11.60;6.37;;;6.40;99.90;;;;;;5014710;28;20195;-72
2023/01/11 13:23:38;;;;;;;8.80;6.10;;;6.50;99.90;;;;;;5014687;28;20207;-71
2023/01/11 13:26:18;;;;;;;9.60;6.00;;;6.50;99.90;;;;;;5014535;28;20284;-72
2023/01/11 13:28:50;;;;;;;10.87;5.97;;;6.40;99.90;;;;;;5013532;28;20537;-72
2023/01/11 13:31:20;;;;;;;12.80;6.53;;;6.40;99.90;;;;;;5014635;28;20218;-73
2023/01/11 13:33:57;;;;;;;11.53;6.23;;;6.40;99.90;;;;;;5014440;28;20203;-71
2023/01/11 13:36:31;;;;;;;8.57;6.20;;;6.30;99.90;;;;;;5014570;28;20211;-72
2023/01/11 13:39:05;;;;;;;9.57;6.17;;;6.40;99.90;;;;;;5014321;28;20554;-71
2023/01/11 13:41:39;;;;;;;12.57;6.30;;;6.40;99.90;;;;;;5014340;28;20213;-72
2023/01/11 13:44:15;;;;;;;13.07;6.23;;;6.50;99.90;;;;;;5014434;28;20198;-71
2023/01/11 13:46:57;;;;;;;17.53;8.80;;;6.40;99.90;;;;;;5014226;28;20221;-70
2023/01/11 13:49:42;;;;;;;13.43;6.57;;;6.40;99.90;;;;;;5014153;28;20212;-71
2023/01/11 13:52:13;;;;;;;10.57;6.80;;;6.40;99.90;;;;;;5013825;28;20207;-71
2023/01/11 13:54:50;;;;;;;10.40;6.47;;;6.40;99.90;;;;;;5014128;28;20285;-71